createdAt,value
2024-04-06T00:00:05.303Z,0.00
2024-04-06T00:01:06.126Z,0.00
2024-04-06T00:02:06.977Z,0.00
2024-04-06T00:03:07.780Z,0.00
2024-04-06T00:04:08.456Z,0.00
2024-04-06T00:05:09.172Z,0.00
2024-04-06T00:06:09.855Z,0.00
2024-04-06T00:07:11.172Z,0.00
2024-04-06T00:08:16.745Z,0.00
2024-04-06T00:09:13.290Z,0.00
2024-04-06T00:10:13.169Z,0.00
2024-04-06T00:11:13.811Z,0.00
2024-04-06T00:12:14.534Z,0.00
2024-04-06T00:13:15.255Z,0.00
2024-04-06T00:14:16.081Z,0.00
2024-04-06T00:15:16.776Z,0.00
2024-04-06T00:16:17.577Z,0.00
2024-04-06T00:17:18.295Z,0.00
2024-04-06T00:18:19.057Z,0.00
2024-04-06T00:19:19.744Z,0.00
2024-04-06T00:20:21.152Z,0.00
2024-04-06T00:21:21.364Z,0.00
2024-04-06T00:22:22.240Z,0.00
2024-04-06T00:23:22.910Z,0.00
2024-04-06T00:24:23.612Z,0.00
2024-04-06T00:25:24.299Z,0.00
2024-04-06T00:26:25.047Z,0.00
2024-04-06T00:27:25.750Z,0.00
2024-04-06T00:28:26.558Z,0.00
2024-04-06T00:29:27.405Z,0.00
2024-04-06T00:30:28.105Z,0.00
2024-04-06T00:31:28.829Z,0.00
2024-04-06T00:32:29.600Z,0.00
2024-04-06T00:33:30.219Z,0.00
2024-04-06T00:34:31.279Z,0.00
2024-04-06T00:35:31.636Z,0.00
2024-04-06T00:36:32.442Z,0.00
2024-04-06T00:37:33.278Z,0.00
2024-04-06T00:38:34.059Z,0.00
2024-04-06T00:39:34.781Z,0.00
2024-04-06T00:40:35.529Z,0.00
2024-04-06T00:41:36.527Z,0.00
2024-04-06T00:42:36.819Z,0.00
2024-04-06T00:43:37.670Z,0.00
2024-04-06T00:44:38.536Z,0.00
2024-04-06T00:45:39.219Z,0.00
2024-04-06T00:46:39.961Z,0.00
2024-04-06T00:47:40.623Z,0.00
2024-04-06T00:48:41.367Z,0.00
2024-04-06T00:49:42.185Z,0.00
2024-04-06T00:50:42.564Z,0.00
2024-04-06T00:51:43.296Z,0.00
2024-04-06T00:52:43.955Z,0.00
2024-04-06T00:53:44.808Z,0.00
2024-04-06T00:54:45.522Z,0.00
2024-04-06T00:55:46.225Z,0.00
2024-04-06T00:56:46.906Z,0.00
2024-04-06T00:57:47.656Z,0.00
2024-04-06T00:58:48.467Z,0.00
2024-04-06T00:59:49.298Z,0.00
2024-04-06T01:00:50.066Z,0.00
2024-04-06T01:02:00.464Z,0.00
2024-04-06T01:02:51.520Z,0.00
2024-04-06T01:03:52.601Z,0.00
2024-04-06T01:04:52.968Z,0.00
2024-04-06T01:05:53.676Z,0.00
2024-04-06T01:06:54.359Z,0.00
2024-04-06T01:07:55.168Z,0.00
2024-04-06T01:08:55.857Z,0.00
2024-04-06T01:09:56.574Z,0.00
2024-04-06T01:10:57.369Z,0.00
2024-04-06T01:11:58.039Z,0.00
2024-04-06T01:12:58.996Z,0.00
2024-04-06T01:13:59.871Z,0.00
2024-04-06T01:15:00.749Z,0.00
2024-04-06T01:16:01.392Z,0.00
2024-04-06T01:17:02.129Z,0.00
2024-04-06T01:18:02.850Z,0.00
2024-04-06T01:19:03.727Z,0.00
2024-04-06T01:20:04.526Z,0.00
2024-04-06T01:21:05.215Z,0.00
2024-04-06T01:22:06.087Z,0.00
2024-04-06T01:23:06.838Z,0.00
2024-04-06T01:24:07.646Z,0.00
2024-04-06T01:25:08.331Z,0.00
2024-04-06T01:26:09.663Z,0.00
2024-04-06T01:27:09.897Z,0.00
2024-04-06T01:28:10.888Z,0.00
2024-04-06T01:29:11.307Z,0.00
2024-04-06T01:30:12.143Z,0.00
2024-04-06T01:31:12.970Z,0.00
2024-04-06T01:32:13.705Z,0.00
2024-04-06T01:33:14.385Z,0.00
2024-04-06T01:34:15.167Z,0.00
2024-04-06T01:35:16.177Z,0.00
2024-04-06T01:36:16.525Z,0.00
2024-04-06T01:37:17.206Z,0.00
2024-04-06T01:38:18.010Z,0.00
2024-04-06T01:39:18.723Z,0.00
2024-04-06T01:40:19.446Z,0.00
2024-04-06T01:41:20.284Z,0.00
2024-04-06T01:42:21.675Z,0.00
2024-04-06T01:43:21.851Z,0.00
2024-04-06T01:44:22.569Z,0.00
2024-04-06T01:45:23.272Z,0.00
2024-04-06T01:46:24.106Z,0.00
2024-04-06T01:47:24.860Z,0.00
2024-04-06T01:48:25.523Z,0.00
2024-04-06T01:49:26.322Z,0.00
2024-04-06T01:50:27.216Z,0.00
2024-04-06T01:51:27.888Z,0.00
2024-04-06T01:52:28.743Z,0.00
2024-04-06T01:53:29.634Z,0.00
2024-04-06T01:54:30.450Z,0.00
2024-04-06T01:55:31.156Z,0.00
2024-04-06T01:56:32.256Z,0.00
2024-04-06T01:57:32.650Z,0.00
2024-04-06T01:58:33.544Z,0.00
2024-04-06T01:59:34.166Z,0.00
2024-04-06T02:00:34.431Z,0.00
2024-04-06T02:01:35.187Z,0.00
2024-04-06T02:02:35.958Z,0.00
2024-04-06T02:03:36.856Z,0.00
2024-04-06T02:04:37.632Z,0.00
2024-04-06T02:05:38.271Z,0.00
2024-04-06T02:06:38.969Z,0.00
2024-04-06T02:07:39.680Z,0.00
2024-04-06T02:08:40.411Z,0.00
2024-04-06T02:09:41.203Z,0.00
2024-04-06T02:10:41.902Z,0.00
2024-04-06T02:11:42.628Z,0.00
2024-04-06T02:12:43.386Z,0.00
2024-04-06T02:13:44.092Z,0.00
2024-04-06T02:14:44.795Z,0.00
2024-04-06T02:15:45.500Z,0.00
2024-04-06T02:16:46.165Z,0.00
2024-04-06T02:17:46.936Z,0.00
2024-04-06T02:18:47.890Z,0.00
2024-04-06T02:19:48.741Z,0.00
2024-04-06T02:20:49.384Z,0.00
2024-04-06T02:21:50.223Z,0.00
2024-04-06T02:22:51.256Z,0.00
2024-04-06T02:23:51.990Z,0.00
2024-04-06T02:24:52.694Z,0.00
2024-04-06T02:25:53.782Z,0.00
2024-04-06T02:26:54.573Z,0.00
2024-04-06T02:27:55.461Z,0.00
2024-04-06T02:28:56.328Z,0.00
2024-04-06T02:29:57.009Z,0.00
2024-04-06T02:30:57.686Z,0.00
2024-04-06T02:31:58.541Z,0.00
2024-04-06T02:32:59.394Z,0.00
2024-04-06T02:34:00.243Z,0.00
2024-04-06T02:35:01.086Z,0.00
2024-04-06T02:36:01.899Z,0.00
2024-04-06T02:37:02.618Z,0.00
2024-04-06T02:38:03.365Z,0.00
2024-04-06T02:39:04.052Z,0.00
2024-04-06T02:40:04.806Z,0.00
2024-04-06T02:41:05.621Z,0.00
2024-04-06T02:42:06.339Z,0.00
2024-04-06T02:43:07.152Z,0.00
2024-04-06T02:44:07.881Z,0.00
2024-04-06T02:45:08.562Z,0.00
2024-04-06T02:46:09.386Z,0.00
2024-04-06T02:47:10.241Z,0.00
2024-04-06T02:48:11.042Z,0.00
2024-04-06T02:49:11.744Z,0.00
2024-04-06T02:50:12.444Z,0.00
2024-04-06T02:51:13.170Z,0.00
2024-04-06T02:52:13.978Z,0.00
2024-04-06T02:53:14.840Z,0.00
2024-04-06T02:54:15.552Z,0.00
2024-04-06T02:55:16.381Z,0.00
2024-04-06T02:56:17.064Z,0.00
2024-04-06T02:57:17.752Z,0.00
2024-04-06T02:58:18.590Z,0.00
2024-04-06T02:59:19.377Z,0.00
2024-04-06T03:00:20.190Z,0.00
2024-04-06T03:01:21.016Z,0.00
2024-04-06T03:02:21.952Z,0.00
2024-04-06T03:03:22.768Z,0.00
2024-04-06T03:04:23.665Z,0.00
2024-04-06T03:05:24.426Z,0.00
2024-04-06T03:06:25.250Z,0.00
2024-04-06T03:07:26.122Z,0.00
2024-04-06T03:08:26.957Z,0.00
2024-04-06T03:09:27.729Z,0.00
2024-04-06T03:10:28.466Z,0.00
2024-04-06T03:11:29.202Z,0.00
2024-04-06T03:12:30.687Z,0.00
2024-04-06T03:13:30.933Z,0.00
2024-04-06T03:14:31.738Z,0.00
2024-04-06T03:15:32.746Z,0.00
2024-04-06T03:16:33.056Z,0.00
2024-04-06T03:17:34.121Z,0.00
2024-04-06T03:18:34.574Z,0.00
2024-04-06T03:19:35.261Z,0.00
2024-04-06T03:20:35.975Z,0.00
2024-04-06T03:21:36.685Z,0.00
2024-04-06T03:22:37.496Z,0.00
2024-04-06T03:23:38.353Z,0.00
2024-04-06T03:24:39.044Z,0.00
2024-04-06T03:25:39.792Z,0.00
2024-04-06T03:26:40.552Z,0.00
2024-04-06T03:27:41.671Z,0.00
2024-04-06T03:28:42.171Z,0.00
2024-04-06T03:29:42.870Z,0.00
2024-04-06T03:30:43.715Z,0.00
2024-04-06T03:31:44.398Z,0.00
2024-04-06T03:32:45.081Z,0.00
2024-04-06T03:33:45.929Z,0.00
2024-04-06T03:34:46.602Z,0.00
2024-04-06T03:35:47.437Z,0.00
2024-04-06T03:36:48.255Z,0.00
2024-04-06T03:37:49.094Z,0.00
2024-04-06T03:38:49.806Z,0.00
2024-04-06T03:39:50.636Z,0.00
2024-04-06T03:40:51.417Z,0.00
2024-04-06T03:41:52.719Z,0.00
2024-04-06T03:42:52.891Z,0.00
2024-04-06T03:43:53.808Z,0.00
2024-04-06T03:44:54.577Z,0.00
2024-04-06T03:45:55.293Z,0.00
2024-04-06T03:46:56.031Z,0.00
2024-04-06T03:47:56.844Z,0.00
2024-04-06T03:48:57.538Z,0.00
2024-04-06T03:49:58.246Z,0.00
2024-04-06T03:50:58.960Z,0.00
2024-04-06T03:51:59.649Z,0.00
2024-04-06T03:53:00.490Z,0.00
2024-04-06T03:54:01.281Z,0.00
2024-04-06T03:55:02.102Z,0.00
2024-04-06T03:56:02.809Z,0.00
2024-04-06T03:57:03.519Z,0.00
2024-04-06T03:58:04.381Z,0.00
2024-04-06T03:59:05.203Z,0.00
2024-04-06T04:00:05.916Z,0.00
2024-04-06T04:01:06.647Z,0.00
2024-04-06T04:02:07.525Z,0.00
2024-04-06T04:03:08.300Z,0.00
2024-04-06T04:04:08.993Z,0.00
2024-04-06T04:05:09.832Z,0.00
2024-04-06T04:06:10.539Z,0.00
2024-04-06T04:07:11.225Z,0.00
2024-04-06T04:08:12.109Z,0.00
2024-04-06T04:09:12.930Z,0.00
2024-04-06T04:10:13.650Z,0.00
2024-04-06T04:11:14.327Z,0.00
2024-04-06T04:12:15.150Z,0.00
2024-04-06T04:13:15.929Z,0.00
2024-04-06T04:14:16.665Z,0.00
2024-04-06T04:15:17.359Z,0.00
2024-04-06T04:16:18.043Z,0.00
2024-04-06T04:17:18.727Z,0.00
2024-04-06T04:18:19.384Z,0.00
2024-04-06T04:19:20.117Z,0.00
2024-04-06T04:20:20.798Z,0.00
2024-04-06T04:21:21.585Z,0.00
2024-04-06T04:22:22.321Z,0.00
2024-04-06T04:23:22.926Z,0.00
2024-04-06T04:24:23.637Z,0.00
2024-04-06T04:25:24.235Z,0.00
2024-04-06T04:26:24.852Z,0.00
2024-04-06T04:27:25.638Z,0.00
2024-04-06T04:28:26.314Z,0.00
2024-04-06T04:29:26.883Z,0.00
2024-04-06T04:30:27.451Z,0.00
2024-04-06T04:31:28.081Z,0.00
2024-04-06T04:32:28.840Z,0.00
2024-04-06T04:33:29.428Z,0.00
2024-04-06T04:34:30.000Z,0.00
2024-04-06T04:35:30.805Z,0.00
2024-04-06T04:36:31.488Z,0.00
2024-04-06T04:37:32.299Z,0.00
2024-04-06T04:38:32.918Z,0.00
2024-04-06T04:39:33.473Z,0.00
2024-04-06T04:40:34.060Z,0.00
2024-04-06T04:41:34.950Z,0.00
2024-04-06T04:42:35.200Z,0.00
2024-04-06T04:43:35.902Z,0.00
2024-04-06T04:44:41.225Z,0.00
2024-04-06T04:45:37.084Z,0.00
2024-04-06T04:46:37.691Z,0.00
2024-04-06T04:47:38.329Z,0.00
2024-04-06T04:48:38.921Z,5.62
2024-04-06T04:49:39.744Z,5.62
2024-04-06T04:50:41.398Z,5.62
2024-04-06T04:51:43.846Z,5.62
2024-04-06T04:52:44.424Z,5.62
2024-04-06T04:53:43.455Z,5.62
2024-04-06T04:54:46.534Z,11.25
2024-04-06T04:55:46.189Z,11.25
2024-04-06T04:56:48.351Z,11.25
2024-04-06T04:57:47.824Z,11.25
2024-04-06T04:58:48.441Z,16.88
2024-04-06T04:59:48.190Z,16.88
2024-04-06T05:00:47.818Z,22.50
2024-04-06T05:01:48.406Z,22.50
2024-04-06T05:02:48.975Z,22.50
2024-04-06T05:03:49.704Z,28.12
2024-04-06T05:04:50.406Z,28.12
2024-04-06T05:05:51.007Z,33.75
2024-04-06T05:06:51.618Z,33.75
2024-04-06T05:07:52.260Z,39.38
2024-04-06T05:08:52.851Z,39.38
2024-04-06T05:09:53.404Z,45.00
2024-04-06T05:10:54.056Z,50.62
2024-04-06T05:11:54.769Z,50.62
2024-04-06T05:12:55.493Z,56.25
2024-04-06T05:13:56.075Z,56.25
2024-04-06T05:14:56.923Z,61.88
2024-04-06T05:15:57.640Z,67.50
2024-04-06T05:16:58.320Z,67.50
2024-04-06T05:17:59.025Z,73.12
2024-04-06T05:18:59.641Z,78.75
2024-04-06T05:20:00.278Z,78.75
2024-04-06T05:21:01.000Z,84.38
2024-04-06T05:22:01.666Z,90.00
2024-04-06T05:23:02.279Z,95.62
2024-04-06T05:24:03.133Z,95.62
2024-04-06T05:25:03.818Z,101.25
2024-04-06T05:26:04.541Z,106.88
2024-04-06T05:27:05.112Z,112.50
2024-04-06T05:28:05.735Z,118.12
2024-04-06T05:29:06.396Z,123.75
2024-04-06T05:30:07.073Z,129.38
2024-04-06T05:31:07.780Z,129.38
2024-04-06T05:32:08.375Z,135.00
2024-04-06T05:33:09.167Z,140.62
2024-04-06T05:34:09.956Z,146.25
2024-04-06T05:35:10.685Z,151.88
2024-04-06T05:36:11.277Z,157.50
2024-04-06T05:37:12.722Z,157.50
2024-04-06T05:38:12.826Z,163.12
2024-04-06T05:39:13.443Z,168.75
2024-04-06T05:40:14.132Z,174.38
2024-04-06T05:41:14.718Z,180.00
2024-04-06T05:42:22.543Z,185.62
2024-04-06T05:43:16.325Z,191.25
2024-04-06T05:44:16.946Z,191.25
2024-04-06T05:45:19.024Z,196.88
2024-04-06T05:46:19.001Z,202.50
2024-04-06T05:47:20.074Z,208.12
2024-04-06T05:48:19.646Z,213.75
2024-04-06T05:49:20.259Z,219.38
2024-04-06T05:50:20.969Z,225.00
2024-04-06T05:51:21.720Z,230.62
2024-04-06T05:52:22.338Z,236.25
2024-04-06T05:53:23.063Z,241.88
2024-04-06T05:54:23.692Z,247.50
2024-04-06T05:55:24.412Z,253.12
2024-04-06T05:56:25.092Z,253.12
2024-04-06T05:57:25.738Z,258.75
2024-04-06T05:58:26.400Z,258.75
2024-04-06T05:59:27.090Z,264.38
2024-04-06T06:00:27.681Z,264.38
2024-04-06T06:01:28.355Z,264.38
2024-04-06T06:02:29.091Z,270.00
2024-04-06T06:03:29.802Z,270.00
2024-04-06T06:04:30.440Z,270.00
2024-04-06T06:05:31.250Z,275.62
2024-04-06T06:06:31.793Z,275.62
2024-04-06T06:07:32.513Z,275.62
2024-04-06T06:08:33.275Z,275.62
2024-04-06T06:09:33.848Z,281.25
2024-04-06T06:10:35.312Z,281.25
2024-04-06T06:11:35.508Z,281.25
2024-04-06T06:12:36.205Z,286.88
2024-04-06T06:13:36.819Z,292.50
2024-04-06T06:14:37.466Z,298.12
2024-04-06T06:15:37.988Z,309.38
2024-04-06T06:16:38.740Z,309.38
2024-04-06T06:17:39.359Z,309.38
2024-04-06T06:18:40.765Z,303.75
2024-04-06T06:19:40.522Z,320.62
2024-04-06T06:20:41.163Z,348.75
2024-04-06T06:21:44.707Z,421.88
2024-04-06T06:22:42.418Z,573.75
2024-04-06T06:23:43.057Z,720.00
2024-04-06T06:24:43.695Z,810.00
2024-04-06T06:25:44.267Z,1074.38
2024-04-06T06:26:45.038Z,1316.25
2024-04-06T06:27:47.396Z,967.50
2024-04-06T06:28:46.251Z,1209.38
2024-04-06T06:29:46.962Z,1215.00
2024-04-06T06:30:47.675Z,1040.62
2024-04-06T06:31:48.411Z,1158.75
2024-04-06T06:32:49.117Z,1428.75
2024-04-06T06:33:49.736Z,1417.50
2024-04-06T06:34:50.318Z,1321.88
2024-04-06T06:37:53.543Z,1496.25
2024-04-06T06:40:54.363Z,1136.25
2024-04-06T06:41:54.946Z,933.75
2024-04-06T06:42:55.719Z,1378.12
2024-04-06T06:43:56.476Z,1788.75
2024-04-06T06:44:57.089Z,1822.50
2024-04-06T06:45:57.770Z,1873.12
2024-04-06T06:46:58.344Z,1614.38
2024-04-06T06:47:58.981Z,1676.25
2024-04-06T06:48:59.614Z,1816.88
2024-04-06T06:50:00.295Z,1890.00
2024-04-06T06:51:01.025Z,2002.50
2024-04-06T06:52:01.656Z,2148.75
2024-04-06T06:53:02.396Z,2131.88
2024-04-06T06:54:03.014Z,2092.50
2024-04-06T06:55:03.613Z,2075.62
2024-04-06T06:56:04.194Z,2115.00
2024-04-06T06:57:04.777Z,2120.62
2024-04-06T06:58:05.357Z,2019.38
2024-04-06T06:59:06.081Z,2058.75
2024-04-06T07:01:07.266Z,2098.12
2024-04-06T07:02:07.872Z,2188.12
2024-04-06T07:03:09.310Z,1912.50
2024-04-06T07:04:09.156Z,1884.38
2024-04-06T07:05:09.718Z,1805.62
2024-04-06T07:06:10.362Z,1974.38
2024-04-06T07:07:11.030Z,2064.38
2024-04-06T07:08:11.679Z,2047.50
2024-04-06T07:09:12.401Z,1890.00
2024-04-06T07:10:13.203Z,2306.25
2024-04-06T07:11:13.922Z,2621.25
2024-04-06T07:12:14.479Z,2514.38
2024-04-06T07:13:15.224Z,2475.00
2024-04-06T07:14:15.928Z,2283.75
2024-04-06T07:15:16.623Z,2379.38
2024-04-06T07:16:17.289Z,2081.25
2024-04-06T07:17:17.896Z,1996.88
2024-04-06T07:18:18.619Z,1833.75
2024-04-06T07:19:19.154Z,2328.75
2024-04-06T07:20:19.878Z,2283.75
2024-04-06T07:21:20.631Z,2289.38
2024-04-06T07:22:21.198Z,2491.88
2024-04-06T07:23:21.780Z,2435.62
2024-04-06T07:24:22.416Z,2221.88
2024-04-06T07:25:23.146Z,2188.12
2024-04-06T07:26:23.913Z,2311.88
2024-04-06T07:27:24.624Z,2407.50
2024-04-06T07:28:25.198Z,2469.38
2024-04-06T07:29:25.940Z,2610.00
2024-04-06T07:30:26.576Z,2497.50
2024-04-06T07:31:27.177Z,2385.00
2024-04-06T07:32:27.911Z,2542.50
2024-04-06T07:33:28.493Z,2711.25
2024-04-06T07:34:29.088Z,2739.38
2024-04-06T07:35:29.672Z,2671.88
2024-04-06T07:36:30.263Z,2671.88
2024-04-06T07:37:30.971Z,2638.12
2024-04-06T07:38:31.707Z,2638.12
2024-04-06T07:39:32.426Z,2750.62
2024-04-06T07:40:33.006Z,2784.38
2024-04-06T07:41:33.592Z,2610.00
2024-04-06T07:42:34.177Z,2655.00
2024-04-06T07:43:34.774Z,2925.00
2024-04-06T07:44:35.399Z,2964.38
2024-04-06T07:45:36.215Z,2840.62
2024-04-06T07:46:37.293Z,2790.00
2024-04-06T07:47:37.461Z,2801.25
2024-04-06T07:48:38.211Z,2896.88
2024-04-06T07:49:38.973Z,3105.00
2024-04-06T07:50:39.515Z,3003.75
2024-04-06T07:51:40.237Z,2750.62
2024-04-06T07:52:40.991Z,2643.75
2024-04-06T07:53:41.701Z,2671.88
2024-04-06T07:54:42.285Z,2885.62
2024-04-06T07:55:42.995Z,2761.88
2024-04-06T07:56:43.593Z,2458.12
2024-04-06T07:57:44.245Z,2542.50
2024-04-06T07:58:45.036Z,2649.38
2024-04-06T07:59:46.077Z,2756.25
2024-04-06T08:00:46.414Z,2896.88
2024-04-06T08:01:47.023Z,2576.25
2024-04-06T08:02:47.756Z,2430.00
2024-04-06T08:03:48.460Z,2660.62
2024-04-06T08:04:49.174Z,2818.12
2024-04-06T08:05:49.956Z,2621.25
2024-04-06T08:06:50.666Z,2463.75
2024-04-06T08:07:51.398Z,2587.50
2024-04-06T08:08:51.960Z,2626.88
2024-04-06T08:09:52.686Z,2536.88
2024-04-06T08:10:53.322Z,2621.25
2024-04-06T08:11:54.046Z,2520.00
2024-04-06T08:12:54.724Z,2458.12
2024-04-06T08:13:55.478Z,2587.50
2024-04-06T08:14:56.310Z,2576.25
2024-04-06T08:15:57.062Z,2407.50
2024-04-06T08:16:58.773Z,2508.75
2024-04-06T08:17:58.486Z,2823.75
2024-04-06T08:18:59.105Z,2666.25
2024-04-06T08:19:59.821Z,2373.75
2024-04-06T08:21:00.563Z,2210.62
2024-04-06T08:22:01.171Z,2356.88
2024-04-06T08:23:01.754Z,2491.88
2024-04-06T08:24:02.503Z,2683.12
2024-04-06T08:25:03.261Z,2806.88
2024-04-06T08:26:05.001Z,2655.00
2024-04-06T08:27:04.571Z,2514.38
2024-04-06T08:28:05.151Z,2435.62
2024-04-06T08:29:05.812Z,2531.25
2024-04-06T08:30:06.525Z,2480.62
2024-04-06T08:31:07.260Z,2345.62
2024-04-06T08:32:07.815Z,2182.50
2024-04-06T08:33:09.178Z,2188.12
2024-04-06T08:34:09.026Z,2548.12
2024-04-06T08:35:09.637Z,2700.00
2024-04-06T08:36:10.335Z,2334.38
2024-04-06T08:37:10.974Z,2103.75
2024-04-06T08:38:11.651Z,2193.75
2024-04-06T08:39:12.410Z,2295.00
2024-04-06T08:40:13.160Z,2193.75
2024-04-06T08:41:13.818Z,2424.38
2024-04-06T08:42:14.439Z,2615.62
2024-04-06T08:43:15.142Z,2283.75
2024-04-06T08:44:15.736Z,1946.25
2024-04-06T08:45:16.458Z,1873.12
2024-04-06T08:46:17.096Z,1985.62
2024-04-06T08:47:17.644Z,2210.62
2024-04-06T08:48:18.239Z,2385.00
2024-04-06T08:49:18.859Z,2255.62
2024-04-06T08:50:21.285Z,2086.88
2024-04-06T08:51:20.115Z,1951.88
2024-04-06T08:52:20.829Z,1996.88
2024-04-06T08:53:21.649Z,2103.75
2024-04-06T08:54:22.366Z,2148.75
2024-04-06T08:55:23.100Z,1963.12
2024-04-06T08:56:23.755Z,1996.88
2024-04-06T08:57:24.326Z,2098.12
2024-04-06T08:58:24.936Z,2182.50
2024-04-06T08:59:25.762Z,2193.75
2024-04-06T09:00:26.338Z,2086.88
2024-04-06T09:01:26.913Z,1732.50
2024-04-06T09:02:27.525Z,1546.88
2024-04-06T09:03:28.259Z,1434.38
2024-04-06T09:04:28.857Z,1569.38
2024-04-06T09:05:29.460Z,1766.25
2024-04-06T09:06:30.235Z,1755.00
2024-04-06T09:07:30.873Z,1665.00
2024-04-06T09:08:31.497Z,1591.88
2024-04-06T09:09:32.169Z,1586.25
2024-04-06T09:10:32.761Z,1586.25
2024-04-06T09:11:33.347Z,1659.38
2024-04-06T09:12:33.953Z,1383.75
2024-04-06T09:13:34.663Z,1659.38
2024-04-06T09:14:35.370Z,1738.12
2024-04-06T09:15:36.228Z,1665.00
2024-04-06T09:16:36.803Z,1710.00
2024-04-06T09:17:37.457Z,1738.12
2024-04-06T09:18:38.889Z,1586.25
2024-04-06T09:19:38.575Z,1676.25
2024-04-06T09:20:39.379Z,1946.25
2024-04-06T09:21:40.002Z,1940.62
2024-04-06T09:22:40.724Z,1839.38
2024-04-06T09:23:41.303Z,2086.88
2024-04-06T09:24:49.412Z,1951.88
2024-04-06T09:25:42.521Z,1738.12
2024-04-06T09:26:43.072Z,1856.25
2024-04-06T09:27:43.654Z,2205.00
2024-04-06T09:28:44.227Z,1912.50
2024-04-06T09:29:45.051Z,1681.88
2024-04-06T09:30:45.670Z,1878.75
2024-04-06T09:31:46.229Z,1760.62
2024-04-06T09:32:46.852Z,1620.00
2024-04-06T09:33:47.546Z,1631.25
2024-04-06T09:34:48.098Z,1766.25
2024-04-06T09:35:48.863Z,1693.12
2024-04-06T09:36:49.573Z,1693.12
2024-04-06T09:37:50.278Z,1721.25
2024-04-06T09:38:50.852Z,1771.88
2024-04-06T09:39:51.476Z,1659.38
2024-04-06T09:40:52.046Z,1653.75
2024-04-06T09:41:52.638Z,1631.25
2024-04-06T09:42:53.219Z,1625.62
2024-04-06T09:43:53.834Z,1591.88
2024-04-06T09:44:54.599Z,1580.62
2024-04-06T09:45:55.308Z,1485.00
2024-04-06T09:46:55.905Z,1451.25
2024-04-06T09:47:56.474Z,1423.12
2024-04-06T09:48:57.096Z,1378.12
2024-04-06T09:49:57.784Z,1378.12
2024-04-06T09:50:58.400Z,1265.62
2024-04-06T09:51:58.981Z,1164.38
2024-04-06T09:52:59.566Z,1080.00
2024-04-06T09:54:00.344Z,1046.25
2024-04-06T09:55:00.916Z,978.75
2024-04-06T09:56:01.492Z,1018.12
2024-04-06T09:57:02.065Z,1096.88
2024-04-06T09:58:02.703Z,1170.00
2024-04-06T09:59:03.308Z,1209.38
2024-04-06T10:00:03.908Z,1209.38
2024-04-06T10:01:04.623Z,1181.25
2024-04-06T10:02:05.255Z,1164.38
2024-04-06T10:03:05.842Z,804.38
2024-04-06T10:04:06.422Z,748.12
2024-04-06T10:05:07.214Z,871.88
2024-04-06T10:06:07.768Z,900.00
2024-04-06T10:07:08.349Z,877.50
2024-04-06T10:08:08.914Z,821.25
2024-04-06T10:09:09.500Z,748.12
2024-04-06T10:10:10.145Z,770.62
2024-04-06T10:11:10.657Z,855.00
2024-04-06T10:12:11.301Z,787.50
2024-04-06T10:13:11.907Z,821.25
2024-04-06T10:14:12.589Z,995.62
2024-04-06T10:15:13.072Z,1068.75
2024-04-06T10:16:13.623Z,1085.62
2024-04-06T10:17:14.185Z,1085.62
2024-04-06T10:18:14.856Z,1046.25
2024-04-06T10:19:15.399Z,810.00
2024-04-06T10:20:15.949Z,562.50
2024-04-06T10:21:16.581Z,534.38
2024-04-06T10:22:17.171Z,523.12
2024-04-06T10:23:17.734Z,517.50
2024-04-06T10:24:18.317Z,511.88
2024-04-06T10:25:18.951Z,500.62
2024-04-06T10:26:19.560Z,478.12
2024-04-06T10:27:20.161Z,483.75
2024-04-06T10:28:20.908Z,472.50
2024-04-06T10:29:21.571Z,444.38
2024-04-06T10:30:22.226Z,450.00
2024-04-06T10:31:32.024Z,450.00
2024-04-06T10:32:23.673Z,444.38
2024-04-06T10:33:24.397Z,438.75
2024-04-06T10:34:27.426Z,427.50
2024-04-06T10:35:25.580Z,416.25
2024-04-06T10:36:26.168Z,405.00
2024-04-06T10:37:26.788Z,388.12
2024-04-06T10:38:27.369Z,376.88
2024-04-06T10:39:27.974Z,388.12
2024-04-06T10:40:28.650Z,388.12
2024-04-06T10:41:29.275Z,382.50
2024-04-06T10:42:29.882Z,376.88
2024-04-06T10:43:30.608Z,376.88
2024-04-06T10:44:31.174Z,376.88
2024-04-06T10:45:31.770Z,371.25
2024-04-06T10:46:32.337Z,360.00
2024-04-06T10:47:32.934Z,343.12
2024-04-06T10:48:33.492Z,331.88
2024-04-06T10:49:34.059Z,303.75
2024-04-06T10:50:34.678Z,331.88
2024-04-06T10:51:35.467Z,337.50
2024-04-06T10:52:36.191Z,315.00
2024-04-06T10:53:36.750Z,337.50
2024-04-06T10:54:39.031Z,337.50
2024-04-06T10:55:37.968Z,343.12
2024-04-06T10:56:38.548Z,365.62
2024-04-06T10:57:39.132Z,365.62
2024-04-06T10:58:39.712Z,286.88
2024-04-06T10:59:40.373Z,315.00
2024-04-06T11:00:40.971Z,331.88
2024-04-06T11:01:41.513Z,371.25
2024-04-06T11:02:42.077Z,388.12
2024-04-06T11:03:42.650Z,393.75
2024-04-06T11:04:43.289Z,427.50
2024-04-06T11:05:43.864Z,444.38
2024-04-06T11:06:44.498Z,450.00
2024-04-06T11:07:45.035Z,450.00
2024-04-06T11:08:45.606Z,450.00
2024-04-06T11:09:46.204Z,444.38
2024-04-06T11:10:46.787Z,444.38
2024-04-06T11:11:47.370Z,444.38
2024-04-06T11:12:48.072Z,438.75
2024-04-06T11:13:48.668Z,433.12
2024-04-06T11:14:49.262Z,427.50
2024-04-06T11:15:49.855Z,421.88
2024-04-06T11:16:50.586Z,410.62
2024-04-06T11:17:51.155Z,410.62
2024-04-06T11:18:51.755Z,405.00
2024-04-06T11:19:52.360Z,405.00
2024-04-06T11:20:52.964Z,399.38
2024-04-06T11:21:53.509Z,393.75
2024-04-06T11:22:54.091Z,388.12
2024-04-06T11:23:54.704Z,388.12
2024-04-06T11:24:55.275Z,382.50
2024-04-06T11:25:55.860Z,382.50
2024-04-06T11:26:56.429Z,371.25
2024-04-06T11:27:57.156Z,365.62
2024-04-06T11:28:57.931Z,360.00
2024-04-06T11:29:59.381Z,360.00
2024-04-06T11:30:59.075Z,360.00
2024-04-06T11:31:59.654Z,365.62
2024-04-06T11:33:00.465Z,365.62
2024-04-06T11:34:00.955Z,365.62
2024-04-06T11:35:01.532Z,360.00
2024-04-06T11:36:02.111Z,360.00
2024-04-06T11:37:02.709Z,354.38
2024-04-06T11:38:03.291Z,354.38
2024-04-06T11:39:03.883Z,354.38
2024-04-06T11:40:04.456Z,343.12
2024-04-06T11:41:05.059Z,331.88
2024-04-06T11:42:05.866Z,337.50
2024-04-06T11:43:06.397Z,337.50
2024-04-06T11:44:06.957Z,337.50
2024-04-06T11:45:07.582Z,348.75
2024-04-06T11:46:08.145Z,354.38
2024-04-06T11:47:08.715Z,354.38
2024-04-06T11:48:09.284Z,354.38
2024-04-06T11:49:09.857Z,354.38
2024-04-06T11:50:10.493Z,354.38
2024-04-06T11:51:11.069Z,348.75
2024-04-06T11:52:11.657Z,348.75
2024-04-06T11:53:12.256Z,343.12
2024-04-06T11:54:12.821Z,348.75
2024-04-06T11:55:13.419Z,348.75
2024-04-06T11:56:13.973Z,343.12
2024-04-06T11:57:14.644Z,337.50
2024-04-06T11:58:15.331Z,337.50
2024-04-06T11:59:15.883Z,337.50
2024-04-06T12:00:18.672Z,337.50
2024-04-06T12:01:17.047Z,337.50
2024-04-06T12:02:17.656Z,348.75
2024-04-06T12:03:18.236Z,354.38
2024-04-06T12:04:18.839Z,348.75
2024-04-06T12:05:19.425Z,354.38
2024-04-06T12:06:20.427Z,354.38
2024-04-06T12:07:20.991Z,354.38
2024-04-06T12:08:21.663Z,354.38
2024-04-06T12:09:22.224Z,354.38
2024-04-06T12:10:22.911Z,354.38
2024-04-06T12:11:23.401Z,348.75
2024-04-06T12:12:23.966Z,354.38
2024-04-06T12:13:24.606Z,354.38
2024-04-06T12:14:25.178Z,348.75
2024-04-06T12:15:25.760Z,348.75
2024-04-06T12:16:26.357Z,348.75
2024-04-06T12:17:26.937Z,348.75
2024-04-06T12:18:27.499Z,348.75
2024-04-06T12:19:28.155Z,348.75
2024-04-06T12:20:28.721Z,343.12
2024-04-06T12:21:29.313Z,343.12
2024-04-06T12:22:29.922Z,337.50
2024-04-06T12:23:30.485Z,331.88
2024-04-06T12:24:31.081Z,331.88
2024-04-06T12:25:31.662Z,326.25
2024-04-06T12:26:32.329Z,326.25
2024-04-06T12:27:32.836Z,326.25
2024-04-06T12:28:33.424Z,331.88
2024-04-06T12:29:34.069Z,331.88
2024-04-06T12:30:34.773Z,320.62
2024-04-06T12:31:35.346Z,326.25
2024-04-06T12:32:35.979Z,320.62
2024-04-06T12:33:36.667Z,320.62
2024-04-06T12:34:37.184Z,320.62
2024-04-06T12:35:37.759Z,309.38
2024-04-06T12:36:38.337Z,303.75
2024-04-06T12:37:38.913Z,298.12
2024-04-06T12:38:39.512Z,292.50
2024-04-06T12:39:40.066Z,315.00
2024-04-06T12:40:41.031Z,309.38
2024-04-06T12:41:41.266Z,292.50
2024-04-06T12:42:41.858Z,303.75
2024-04-06T12:43:42.454Z,320.62
2024-04-06T12:44:43.088Z,315.00
2024-04-06T12:45:43.657Z,320.62
2024-04-06T12:46:44.243Z,315.00
2024-04-06T12:47:44.872Z,320.62
2024-04-06T12:48:45.425Z,315.00
2024-04-06T12:49:45.995Z,320.62
2024-04-06T12:50:46.587Z,326.25
2024-04-06T12:51:47.524Z,320.62
2024-04-06T12:52:47.738Z,315.00
2024-04-06T12:53:48.280Z,309.38
2024-04-06T12:54:48.879Z,320.62